createdAt,value
2018-10-11T00:00:02.290Z,95530.72
2018-10-11T00:02:30.991Z,95534.59
2018-10-11T00:04:59.654Z,95527.57
2018-10-11T00:07:28.375Z,95518.38
2018-10-11T00:09:57.089Z,95521.73
2018-10-11T00:12:25.855Z,95520.72
2018-10-11T00:14:54.516Z,95524.91
2018-10-11T00:17:23.212Z,95522.83
2018-10-11T00:19:51.873Z,95525.11
2018-10-11T00:22:20.526Z,95527.73
2018-10-11T00:24:50.114Z,95519.33
2018-10-11T00:27:18.774Z,95511.28
2018-10-11T00:29:47.511Z,95518.95
2018-10-11T00:32:16.230Z,95514.69
2018-10-11T00:34:44.947Z,95512.95
2018-10-11T00:37:13.613Z,95517.97
2018-10-11T00:39:42.258Z,95517.69
2018-10-11T00:42:10.915Z,95516.36
2018-10-11T00:44:39.641Z,95509.06
2018-10-11T00:47:08.513Z,95519.05
2018-10-11T00:49:37.259Z,95514.16
2018-10-11T00:52:05.868Z,95512.64
2018-10-11T00:54:34.524Z,95517.88
2018-10-11T00:57:03.195Z,95514.68
2018-10-11T00:59:31.857Z,95514.00
2018-10-11T01:02:00.603Z,95513.23
2018-10-11T01:04:29.258Z,95516.41
2018-10-11T01:06:57.952Z,95517.62
2018-10-11T01:09:26.721Z,95520.22
2018-10-11T01:11:55.340Z,95520.37
2018-10-11T01:14:24.025Z,95521.68
2018-10-11T01:16:52.644Z,95522.91
2018-10-11T01:19:21.253Z,95526.42
2018-10-11T01:21:49.927Z,95518.78
2018-10-11T01:24:18.512Z,95523.11
2018-10-11T01:26:47.129Z,95521.00
2018-10-11T01:29:15.774Z,95521.38
2018-10-11T01:31:44.410Z,95523.63
2018-10-11T01:34:13.080Z,95512.98
2018-10-11T01:36:41.772Z,95512.41
2018-10-11T01:39:10.525Z,95517.45
2018-10-11T01:41:39.221Z,95515.12
2018-10-11T01:44:07.941Z,95508.83
2018-10-11T01:46:36.603Z,95519.74
2018-10-11T01:49:05.320Z,95512.64
2018-10-11T01:51:33.978Z,95511.42
2018-10-11T01:54:02.569Z,95516.11
2018-10-11T01:56:31.262Z,95518.55
2018-10-11T01:58:59.900Z,95521.58
2018-10-11T02:01:28.557Z,95523.94
2018-10-11T02:03:57.226Z,95521.68
2018-10-11T02:06:26.020Z,95522.67
2018-10-11T02:08:54.616Z,95519.50
2018-10-11T02:11:23.311Z,95521.48
2018-10-11T02:13:51.994Z,95521.14
2018-10-11T02:16:20.640Z,95519.20
2018-10-11T02:18:49.308Z,95514.62
2018-10-11T02:21:17.956Z,95521.53
2018-10-11T02:23:46.565Z,95525.51
2018-10-11T02:26:15.525Z,95529.86
2018-10-11T02:28:44.244Z,95528.17
2018-10-11T02:31:12.878Z,95527.10
2018-10-11T02:33:41.493Z,95527.40
2018-10-11T02:36:10.170Z,95525.03
2018-10-11T02:38:38.819Z,95526.48
2018-10-11T02:41:07.461Z,95534.02
2018-10-11T02:43:36.104Z,95533.84
2018-10-11T02:46:04.774Z,95536.00
2018-10-11T02:48:33.522Z,95531.56
2018-10-11T02:51:02.222Z,95526.49
2018-10-11T02:53:30.913Z,95529.88
2018-10-11T02:55:59.596Z,95519.76
2018-10-11T02:58:39.445Z,95514.38
2018-10-11T03:01:08.539Z,95521.45
2018-10-11T03:03:37.328Z,95515.80
2018-10-11T03:06:06.120Z,95515.52
2018-10-11T03:08:35.174Z,95514.82
2018-10-11T03:11:03.938Z,95517.52
2018-10-11T03:13:32.752Z,95513.88
2018-10-11T03:16:01.400Z,95510.39
2018-10-11T03:18:30.132Z,95515.38
2018-10-11T03:20:58.822Z,95509.05
2018-10-11T03:23:27.476Z,95506.75
2018-10-11T03:25:56.099Z,95500.75
2018-10-11T03:28:24.830Z,95509.17
2018-10-11T03:30:53.451Z,95509.22
2018-10-11T03:33:22.113Z,95506.45
2018-10-11T03:35:50.736Z,95503.39
2018-10-11T03:38:19.409Z,95505.74
2018-10-11T03:40:48.066Z,95509.83
2018-10-11T03:43:16.690Z,95508.29
2018-10-11T03:45:45.428Z,95511.69
2018-10-11T03:48:14.087Z,95512.37
2018-10-11T03:50:42.735Z,95520.06
2018-10-11T03:53:11.394Z,95513.19
2018-10-11T03:55:39.973Z,95511.48
2018-10-11T03:58:08.650Z,95507.25
2018-10-11T04:00:37.405Z,95506.65
2018-10-11T04:03:06.097Z,95501.86
2018-10-11T04:07:43.662Z,95499.13
2018-10-11T04:10:12.329Z,95500.22
2018-10-11T04:12:41.015Z,95499.53
2018-10-11T04:15:09.832Z,95498.96
2018-10-11T04:17:38.422Z,95500.08
2018-10-11T04:20:07.174Z,95499.91
2018-10-11T04:22:35.837Z,95502.34
2018-10-11T04:25:04.445Z,95500.55
2018-10-11T04:27:33.097Z,95497.16
2018-10-11T04:30:01.872Z,95503.15
2018-10-11T04:32:30.626Z,95503.30
2018-10-11T04:34:59.225Z,95505.43
2018-10-11T04:37:27.869Z,95496.08
2018-10-11T04:39:56.525Z,95497.47
2018-10-11T04:42:25.196Z,95507.19
2018-10-11T04:44:53.836Z,95505.69
2018-10-11T04:47:22.469Z,95499.53
2018-10-11T04:49:51.236Z,95505.72
2018-10-11T04:52:19.869Z,95503.30
2018-10-11T04:54:48.534Z,95500.21
2018-10-11T04:57:17.277Z,95499.83
2018-10-11T04:59:45.963Z,95504.11
2018-10-11T05:02:14.651Z,95509.61
2018-10-11T05:04:43.475Z,95503.19
2018-10-11T05:07:12.541Z,95507.20
2018-10-11T05:09:41.229Z,95501.48
2018-10-11T05:12:09.979Z,95500.04
2018-10-11T05:14:38.767Z,95507.02
2018-10-11T05:17:07.534Z,95505.47
2018-10-11T05:19:38.329Z,95510.53
2018-10-11T05:22:07.043Z,95511.72
2018-10-11T05:24:35.712Z,95513.06
2018-10-11T05:27:04.484Z,95515.16
2018-10-11T05:29:33.181Z,95517.97
2018-10-11T05:32:01.941Z,95526.83
2018-10-11T05:34:30.697Z,95524.41
2018-10-11T05:36:59.339Z,95523.52
2018-10-11T05:39:28.137Z,95519.63
2018-10-11T05:41:56.883Z,95526.95
2018-10-11T05:44:25.722Z,95524.55
2018-10-11T05:46:54.422Z,95528.02
2018-10-11T05:49:23.386Z,95522.71
2018-10-11T05:51:52.208Z,95531.91
2018-10-11T05:54:20.983Z,95534.87
2018-10-11T05:56:50.622Z,95535.06
2018-10-11T05:59:19.391Z,95537.23
2018-10-11T06:01:48.172Z,95528.36
2018-10-11T06:04:16.960Z,95535.88
2018-10-11T06:06:47.217Z,95525.73
2018-10-11T06:09:15.966Z,95532.91
2018-10-11T06:11:45.462Z,95533.16
2018-10-11T06:14:15.164Z,95532.84
2018-10-11T06:16:44.237Z,95537.27
2018-10-11T06:19:14.539Z,95537.98
2018-10-11T06:21:43.683Z,95541.87
2018-10-11T06:24:12.476Z,95539.80
2018-10-11T06:26:41.443Z,95541.59
2018-10-11T06:29:10.542Z,95539.33
2018-10-11T06:31:39.334Z,95543.66
2018-10-11T06:34:08.041Z,95548.05
2018-10-11T06:36:36.986Z,95548.91
2018-10-11T06:39:08.321Z,95550.70
2018-10-11T06:41:38.073Z,95550.08
2018-10-11T06:44:37.726Z,95552.91
2018-10-11T06:47:06.722Z,95555.20
2018-10-11T06:49:35.493Z,95553.30
2018-10-11T06:52:04.231Z,95553.48
2018-10-11T06:54:33.021Z,95552.23
2018-10-11T06:57:01.777Z,95550.66
2018-10-11T06:59:30.496Z,95548.45
2018-10-11T07:01:59.356Z,95549.61
2018-10-11T07:04:28.112Z,95556.34
2018-10-11T07:06:56.834Z,95554.73
2018-10-11T07:09:25.630Z,95557.05
2018-10-11T07:11:54.284Z,95556.90
2018-10-11T07:14:22.941Z,95557.92
2018-10-11T07:16:51.631Z,95565.63
2018-10-11T07:19:20.392Z,95569.11
2018-10-11T07:21:49.068Z,95576.98
2018-10-11T07:24:17.715Z,95575.69
2018-10-11T07:26:46.369Z,95580.94
2018-10-11T07:29:15.058Z,95585.49
2018-10-11T07:31:43.679Z,95583.75
2018-10-11T07:34:12.317Z,95583.28
2018-10-11T07:36:41.709Z,95584.28
2018-10-11T07:39:12.341Z,95578.25
2018-10-11T07:41:41.162Z,95579.06
2018-10-11T07:44:10.060Z,95576.78
2018-10-11T07:46:39.132Z,95578.56
2018-10-11T07:49:08.535Z,95577.75
2018-10-11T07:51:37.608Z,95576.09
2018-10-11T07:54:06.250Z,95568.53
2018-10-11T07:56:34.911Z,95563.91
2018-10-11T07:59:03.559Z,95571.20
2018-10-11T08:01:32.347Z,95572.99
2018-10-11T08:04:00.985Z,95567.39
2018-10-11T08:06:29.696Z,95564.22
2018-10-11T08:08:58.385Z,95566.45
2018-10-11T08:11:27.205Z,95564.89
2018-10-11T08:13:55.876Z,95563.77
2018-10-11T08:16:24.599Z,95564.17
2018-10-11T08:18:53.324Z,95562.63
2018-10-11T08:21:22.058Z,95570.66
2018-10-11T08:23:50.745Z,95568.79
2018-10-11T08:26:19.709Z,95566.86
2018-10-11T08:28:47.980Z,95563.30
2018-10-11T08:31:16.605Z,95568.44
2018-10-11T08:33:45.261Z,95568.02
2018-10-11T17:50:52.505Z,95504.77
2018-10-11T17:53:21.409Z,95485.90
2018-10-11T17:55:52.798Z,95509.21
2018-10-11T17:58:21.513Z,95513.09
2018-10-11T18:00:50.163Z,95509.44
2018-10-11T18:03:19.177Z,95508.27
2018-10-11T18:06:08.629Z,95511.35
2018-10-11T18:08:37.479Z,95513.45
2018-10-11T18:11:06.413Z,95521.92
2018-10-11T18:15:42.413Z,95526.42
2018-10-11T18:18:11.074Z,95524.95
2018-10-11T18:20:39.748Z,95528.88
2018-10-11T18:23:08.486Z,95525.57
2018-10-11T18:25:37.164Z,95532.77
2018-10-11T18:28:05.933Z,95533.29
2018-10-11T18:30:35.843Z,95540.83
2018-10-11T18:33:04.519Z,95541.47
2018-10-11T18:35:33.350Z,95545.27
2018-10-11T18:38:02.048Z,95545.35
2018-10-11T18:40:30.763Z,95543.10
2018-10-11T18:42:59.440Z,95547.38
2018-10-11T18:45:28.376Z,95548.48
2018-10-11T18:47:57.120Z,95543.10
2018-10-11T18:50:25.825Z,95548.76
2018-10-11T18:52:54.510Z,95551.89
2018-10-11T18:55:23.397Z,95550.13
2018-10-11T18:57:52.168Z,95557.51
2018-10-11T19:00:22.748Z,95542.00
2018-10-11T19:02:51.459Z,95557.78
2018-10-11T19:05:20.136Z,95549.33
2018-10-11T19:07:49.478Z,95549.19
2018-10-11T19:10:18.301Z,95550.13
2018-10-11T19:12:47.161Z,95551.89
2018-10-11T19:16:20.547Z,95548.45
2018-10-11T19:20:45.181Z,95554.10
2018-10-11T19:28:05.565Z,95552.27
2018-10-11T19:30:34.616Z,95557.61
2018-10-11T19:33:03.253Z,95561.68
2018-10-11T19:35:31.949Z,95560.23
2018-10-11T19:38:01.110Z,95561.54
2018-10-11T19:40:29.728Z,95557.70
2018-10-11T19:42:58.340Z,95561.96
2018-10-11T19:45:27.070Z,95564.72
2018-10-11T19:47:55.709Z,95560.31
2018-10-11T19:50:24.454Z,95567.84
2018-10-11T19:52:53.153Z,95571.08
2018-10-11T19:55:21.885Z,95565.78
2018-10-11T19:57:50.708Z,95569.80
2018-10-11T20:00:19.478Z,95567.83
2018-10-11T20:02:48.110Z,95564.70
2018-10-11T20:05:16.770Z,95565.45
2018-10-11T20:07:45.393Z,95568.58
2018-10-11T20:10:14.507Z,95565.03
2018-10-11T20:12:43.153Z,95572.14
2018-10-11T20:15:11.861Z,95571.86
2018-10-11T20:17:40.562Z,95571.53
2018-10-11T20:20:09.218Z,95570.03
2018-10-11T20:22:37.887Z,95570.00
2018-10-11T20:25:06.925Z,95569.67
2018-10-11T20:27:35.575Z,95572.80
2018-10-11T20:30:06.010Z,95571.27
2018-10-11T20:32:34.637Z,95568.03
2018-10-11T20:35:03.285Z,95569.19
2018-10-11T20:37:31.909Z,95574.39
2018-10-11T20:40:01.227Z,95575.27
2018-10-11T20:42:29.919Z,95569.81
2018-10-11T20:44:58.606Z,95571.34
2018-10-11T20:47:27.231Z,95568.83
2018-10-11T20:49:55.909Z,95568.18
2018-10-11T20:52:24.635Z,95564.58
2018-10-11T20:54:53.517Z,95565.13
2018-10-11T20:57:22.303Z,95564.66
2018-10-11T20:59:51.923Z,95567.79
2018-10-11T21:02:20.600Z,95569.28
2018-10-11T21:04:49.288Z,95568.30
2018-10-11T21:07:17.978Z,95571.61
2018-10-11T21:09:46.700Z,95576.19
2018-10-11T21:12:15.493Z,95574.59
2018-10-11T21:14:44.179Z,95574.08
2018-10-11T21:17:12.928Z,95576.38
2018-10-11T21:19:41.612Z,95572.81
2018-10-11T21:22:10.261Z,95573.65
2018-10-11T21:24:39.011Z,95573.65
2018-10-11T21:27:07.710Z,95572.37
2018-10-11T21:29:36.567Z,95573.36
2018-10-11T21:32:05.249Z,95574.63
2018-10-11T21:34:33.999Z,95567.44
2018-10-11T21:37:02.709Z,95571.36
2018-10-11T21:39:31.475Z,95571.17
2018-10-11T21:42:00.113Z,95564.50
2018-10-11T21:44:29.021Z,95566.86
2018-10-11T21:46:57.691Z,95560.82
2018-10-11T21:49:26.429Z,95566.23
2018-10-11T21:51:55.207Z,95566.74
2018-10-11T21:54:23.905Z,95570.25
2018-10-11T21:56:52.684Z,95560.00
2018-10-11T21:59:21.404Z,95564.24
2018-10-11T22:01:50.109Z,95557.23
2018-10-11T22:04:18.929Z,95563.17
2018-10-11T22:06:47.612Z,95562.48
2018-10-11T22:09:16.343Z,95563.62
2018-10-11T22:11:45.122Z,95554.84
2018-10-11T22:14:13.788Z,95562.86
2018-10-11T22:16:42.520Z,95566.00
2018-10-11T22:19:11.199Z,95564.06
2018-10-11T22:21:39.925Z,95563.09
2018-10-11T22:24:09.160Z,95573.02
2018-10-11T22:26:37.829Z,95571.05
2018-10-11T22:29:06.528Z,95566.13
2018-10-11T22:31:35.200Z,95568.44
2018-10-11T22:34:03.918Z,95570.88
2018-10-11T22:36:32.701Z,95571.53
2018-10-11T22:39:01.349Z,95571.86
2018-10-11T22:41:30.173Z,95570.92
2018-10-11T22:43:58.741Z,95569.12
2018-10-11T22:46:27.591Z,95572.23
2018-10-11T22:48:56.299Z,95573.86
2018-10-11T22:51:24.972Z,95569.64
2018-10-11T22:53:53.612Z,95573.91
2018-10-11T22:56:22.656Z,95570.48
2018-10-11T22:58:52.391Z,95572.47
2018-10-11T23:01:21.927Z,95573.47
2018-10-11T23:03:50.624Z,95572.69
2018-10-11T23:06:19.272Z,95566.94
2018-10-11T23:08:47.911Z,95564.19
2018-10-11T23:11:16.746Z,95569.72
2018-10-11T23:13:45.354Z,95571.36
2018-10-11T23:16:44.711Z,95567.14
2018-10-11T23:19:13.359Z,95564.20
2018-10-11T23:21:41.990Z,95560.30
2018-10-11T23:24:10.633Z,95558.17
2018-10-11T23:26:39.300Z,95557.20
2018-10-11T23:29:07.937Z,95560.45
2018-10-11T23:31:36.637Z,95556.22
2018-10-11T23:34:05.305Z,95554.44
2018-10-11T23:36:33.948Z,95551.48
2018-10-11T23:39:02.579Z,95546.75
2018-10-11T23:41:31.164Z,95551.32
2018-10-11T23:43:59.783Z,95548.55
2018-10-11T23:46:28.465Z,95549.55
2018-10-11T23:48:57.126Z,95544.80
2018-10-11T23:51:25.776Z,95549.37
2018-10-11T23:53:54.444Z,95550.35
2018-10-11T23:56:23.096Z,95553.92
2018-10-11T23:58:51.711Z,95558.49
